createdAt,value
2017-08-18T00:00:22.715Z,0
2017-08-18T00:01:03.195Z,0
2017-08-18T00:01:43.645Z,0
2017-08-18T00:02:24.111Z,0
2017-08-18T00:03:04.551Z,0
2017-08-18T00:03:45.032Z,0
2017-08-18T00:06:18.045Z,0
2017-08-18T00:06:58.537Z,0
2017-08-18T00:07:39.036Z,0
2017-08-18T00:08:20.117Z,0
2017-08-18T00:09:01.424Z,0
2017-08-18T00:09:41.916Z,0
2017-08-18T00:10:22.407Z,0
2017-08-18T00:11:03.950Z,0
2017-08-18T00:11:43.805Z,0
2017-08-18T00:12:25.131Z,0
2017-08-18T00:14:24.006Z,0
2017-08-18T00:15:04.516Z,0
2017-08-18T00:15:45.006Z,0
2017-08-18T00:16:25.494Z,0
2017-08-18T00:17:06.710Z,0
2017-08-18T00:17:47.195Z,0
2017-08-18T00:18:27.654Z,0
2017-08-18T00:19:08.123Z,0
2017-08-18T00:19:48.577Z,0
2017-08-18T00:20:29.038Z,0
2017-08-18T00:21:09.490Z,0
2017-08-18T00:21:50.788Z,0
2017-08-18T00:22:31.252Z,0
2017-08-18T00:23:11.725Z,0
2017-08-18T00:25:25.517Z,0
2017-08-18T00:26:05.910Z,0
2017-08-18T00:26:46.380Z,0
2017-08-18T00:27:26.901Z,0
2017-08-18T00:28:07.360Z,0
2017-08-18T00:28:47.841Z,0
2017-08-18T00:29:28.332Z,0
2017-08-18T00:30:08.836Z,0
2017-08-18T00:30:49.308Z,0
2017-08-18T00:31:29.735Z,0
2017-08-18T00:32:10.198Z,0
2017-08-18T00:32:50.658Z,0
2017-08-18T00:33:31.120Z,0
2017-08-18T00:34:11.610Z,0
2017-08-18T00:34:52.069Z,0
2017-08-18T00:35:32.540Z,0
2017-08-18T00:36:12.998Z,0
2017-08-18T00:36:53.440Z,0
2017-08-18T00:38:51.096Z,0
2017-08-18T00:39:31.575Z,0
2017-08-18T00:40:12.052Z,0
2017-08-18T00:40:52.553Z,0
2017-08-18T00:41:33.973Z,0
2017-08-18T00:42:14.470Z,0
2017-08-18T00:42:56.303Z,0
2017-08-18T00:43:36.801Z,0
2017-08-18T00:44:17.310Z,0
2017-08-18T00:44:57.775Z,0
2017-08-18T00:46:55.410Z,0
2017-08-18T00:47:35.861Z,0
2017-08-18T00:48:16.358Z,0
2017-08-18T00:48:57.491Z,0
2017-08-18T00:49:37.971Z,0
2017-08-18T00:50:18.499Z,0
2017-08-18T00:50:58.969Z,0
2017-08-18T00:51:39.459Z,0
2017-08-18T00:52:20.816Z,0
2017-08-18T00:53:01.296Z,0
2017-08-18T00:53:41.786Z,0
2017-08-18T00:54:22.285Z,0
2017-08-18T00:55:02.772Z,0
2017-08-18T00:55:44.494Z,0
2017-08-18T00:56:25.809Z,0
2017-08-18T00:57:06.295Z,0
2017-08-18T00:57:46.796Z,0
2017-08-18T00:58:27.259Z,0
2017-08-18T00:59:07.727Z,0
2017-08-18T00:59:48.177Z,0
2017-08-18T01:02:05.954Z,0
2017-08-18T01:02:46.443Z,0
2017-08-18T01:03:26.913Z,0
2017-08-18T01:04:07.415Z,0
2017-08-18T01:04:47.890Z,0
2017-08-18T01:05:28.392Z,0
2017-08-18T01:06:09.542Z,0
2017-08-18T01:06:50.076Z,0
2017-08-18T01:07:30.631Z,0
2017-08-18T01:08:11.179Z,0
2017-08-18T01:08:51.761Z,0
2017-08-18T01:09:32.275Z,0
2017-08-18T01:12:00.254Z,0
2017-08-18T01:12:40.683Z,0
2017-08-18T01:13:21.158Z,0
2017-08-18T01:14:01.656Z,0
2017-08-18T01:14:42.173Z,0
2017-08-18T01:15:22.637Z,0
2017-08-18T01:16:03.138Z,0
2017-08-18T01:16:43.628Z,0
2017-08-18T01:17:24.713Z,0
2017-08-18T01:18:05.189Z,0
2017-08-18T01:18:45.670Z,0
2017-08-18T01:19:26.933Z,0
2017-08-18T01:20:08.110Z,0
2017-08-18T01:20:48.594Z,0
2017-08-18T01:21:29.125Z,0
2017-08-18T01:22:09.544Z,0
2017-08-18T01:22:50.000Z,0
2017-08-18T01:23:30.495Z,0
2017-08-18T01:24:10.956Z,0
2017-08-18T01:24:51.413Z,0
2017-08-18T01:25:31.873Z,0
2017-08-18T01:26:12.323Z,0
2017-08-18T01:28:30.101Z,0
2017-08-18T01:29:10.616Z,0
2017-08-18T01:29:51.092Z,0
2017-08-18T01:30:31.592Z,0
2017-08-18T01:31:12.096Z,0
2017-08-18T01:31:52.571Z,0
2017-08-18T01:32:33.058Z,0
2017-08-18T01:33:13.563Z,0
2017-08-18T01:33:54.061Z,0
2017-08-18T01:34:34.548Z,0
2017-08-18T01:35:15.034Z,0
2017-08-18T01:35:55.526Z,0
2017-08-18T01:36:36.023Z,0
2017-08-18T01:37:16.526Z,0
2017-08-18T01:37:56.977Z,0
2017-08-18T01:38:37.471Z,0
2017-08-18T01:39:17.947Z,0
2017-08-18T01:39:58.452Z,0
2017-08-18T01:40:38.925Z,0
2017-08-18T01:41:19.366Z,0
2017-08-18T01:41:59.825Z,0
2017-08-18T01:42:40.821Z,0
2017-08-18T01:43:21.300Z,0
2017-08-18T01:45:54.367Z,0
2017-08-18T01:46:34.835Z,0
2017-08-18T01:47:15.322Z,0
2017-08-18T01:47:55.798Z,0
2017-08-18T01:48:36.268Z,0
2017-08-18T01:51:04.229Z,0
2017-08-18T01:51:44.725Z,0
2017-08-18T01:52:25.226Z,0
2017-08-18T01:53:05.702Z,0
2017-08-18T01:53:46.192Z,0
2017-08-18T01:54:26.682Z,0
2017-08-18T01:55:07.181Z,0
2017-08-18T01:55:47.664Z,0
2017-08-18T01:56:28.146Z,0
2017-08-18T01:57:08.650Z,0
2017-08-18T01:57:49.146Z,0
2017-08-18T01:58:29.654Z,0
2017-08-18T01:59:10.145Z,0
2017-08-18T01:59:50.620Z,0
2017-08-18T02:00:31.134Z,0
2017-08-18T02:01:11.614Z,0
2017-08-18T02:01:52.084Z,0
2017-08-18T02:02:32.572Z,0
2017-08-18T02:03:13.062Z,0
2017-08-18T02:03:53.542Z,0
2017-08-18T02:04:34.017Z,0
2017-08-18T02:05:14.492Z,0
2017-08-18T02:05:55.014Z,0
2017-08-18T02:06:35.483Z,0
2017-08-18T02:07:16.708Z,0
2017-08-18T02:07:57.211Z,0
2017-08-18T02:08:37.684Z,0
2017-08-18T02:09:18.147Z,0
2017-08-18T02:11:15.817Z,0
2017-08-18T02:11:56.309Z,0
2017-08-18T02:12:36.798Z,0
2017-08-18T02:13:17.297Z,0
2017-08-18T02:13:57.858Z,0
2017-08-18T02:14:38.355Z,0
2017-08-18T02:15:18.860Z,0
2017-08-18T02:15:59.336Z,0
2017-08-18T02:16:39.834Z,0
2017-08-18T02:17:20.334Z,0
2017-08-18T02:18:00.815Z,0
2017-08-18T02:18:41.301Z,0
2017-08-18T02:19:21.792Z,0
2017-08-18T02:20:02.282Z,0
2017-08-18T02:20:42.763Z,0
2017-08-18T02:21:23.255Z,0
2017-08-18T02:22:03.767Z,0
2017-08-18T02:22:44.238Z,0
2017-08-18T02:23:24.718Z,0
2017-08-18T02:24:05.180Z,0
2017-08-18T02:24:45.673Z,0
2017-08-18T02:25:26.152Z,0
2017-08-18T02:26:06.623Z,0
2017-08-18T02:26:47.109Z,0
2017-08-18T02:27:27.561Z,0
2017-08-18T02:28:08.023Z,0
2017-08-18T02:28:48.497Z,0
2017-08-18T02:29:29.006Z,0
2017-08-18T02:30:09.493Z,0
2017-08-18T02:30:49.978Z,0
2017-08-18T02:33:17.909Z,0
2017-08-18T02:33:58.403Z,0
2017-08-18T02:34:38.863Z,0
2017-08-18T02:35:19.339Z,0
2017-08-18T02:35:59.804Z,0
2017-08-18T02:38:12.515Z,0
2017-08-18T02:38:52.999Z,0
2017-08-18T02:39:34.308Z,0
2017-08-18T02:40:14.791Z,0
2017-08-18T02:40:55.297Z,0
2017-08-18T02:41:35.804Z,0
2017-08-18T02:42:16.278Z,0
2017-08-18T02:42:56.739Z,0
2017-08-18T02:43:37.201Z,0
2017-08-18T02:44:17.642Z,0
2017-08-18T02:44:58.136Z,0
2017-08-18T02:45:38.613Z,0
2017-08-18T02:46:19.073Z,0
2017-08-18T02:46:59.519Z,0
2017-08-18T02:48:57.163Z,0
2017-08-18T02:49:37.652Z,0
2017-08-18T02:50:18.131Z,0
2017-08-18T02:50:58.625Z,0
2017-08-18T02:51:39.114Z,0
2017-08-18T02:52:19.605Z,0
2017-08-18T02:53:00.091Z,0
2017-08-18T02:53:40.590Z,0
2017-08-18T02:54:21.093Z,0
2017-08-18T02:55:01.585Z,0
2017-08-18T02:55:44.649Z,0
2017-08-18T02:58:17.687Z,0
2017-08-18T02:58:58.218Z,0
2017-08-18T02:59:38.665Z,0
2017-08-18T03:00:19.169Z,0
2017-08-18T03:00:59.663Z,0
2017-08-18T03:01:40.150Z,0
2017-08-18T03:02:20.638Z,0
2017-08-18T03:03:01.131Z,0
2017-08-18T03:03:41.625Z,0
2017-08-18T03:04:22.113Z,0
2017-08-18T03:06:50.087Z,0
2017-08-18T03:07:30.546Z,0
2017-08-18T03:08:11.036Z,0
2017-08-18T03:08:51.539Z,0
2017-08-18T03:09:32.026Z,0
2017-08-18T03:10:12.514Z,0
2017-08-18T03:10:53.022Z,0
2017-08-18T03:11:33.501Z,0
2017-08-18T03:12:13.981Z,0
2017-08-18T03:12:54.512Z,0
2017-08-18T03:13:34.979Z,0
2017-08-18T03:14:15.468Z,0
2017-08-18T03:14:55.973Z,0
2017-08-18T03:15:36.458Z,0
2017-08-18T03:16:16.946Z,0
2017-08-18T03:16:58.354Z,0
2017-08-18T03:17:39.654Z,0
2017-08-18T03:18:20.131Z,0
2017-08-18T03:19:00.633Z,0
2017-08-18T03:19:41.119Z,0
2017-08-18T03:20:21.611Z,0
2017-08-18T03:22:39.421Z,0
2017-08-18T03:23:19.935Z,0
2017-08-18T03:24:00.405Z,0
2017-08-18T03:24:40.895Z,0
2017-08-18T03:25:21.404Z,0
2017-08-18T03:26:01.893Z,0
2017-08-18T03:26:42.382Z,0
2017-08-18T03:27:22.887Z,0
2017-08-18T03:28:04.137Z,0
2017-08-18T03:28:44.622Z,0
2017-08-18T03:29:25.102Z,0
2017-08-18T03:30:05.594Z,0
2017-08-18T03:30:46.055Z,0
2017-08-18T03:31:26.560Z,0
2017-08-18T03:32:07.056Z,0
2017-08-18T03:32:47.554Z,0
2017-08-18T03:33:28.032Z,0
2017-08-18T03:34:08.528Z,0
2017-08-18T03:34:49.000Z,0
2017-08-18T03:35:29.505Z,0
2017-08-18T03:36:10.000Z,0
2017-08-18T03:38:27.814Z,0
2017-08-18T03:39:08.381Z,0
2017-08-18T03:39:48.764Z,0
2017-08-18T03:40:29.248Z,0
2017-08-18T03:41:09.733Z,0
2017-08-18T03:41:50.233Z,0
2017-08-18T03:42:30.722Z,0
2017-08-18T03:43:11.237Z,0
2017-08-18T03:43:53.380Z,0
2017-08-18T03:44:33.886Z,0
2017-08-18T03:45:14.371Z,0
2017-08-18T03:45:54.859Z,0
2017-08-18T03:46:35.329Z,0
2017-08-18T03:47:15.842Z,0
2017-08-18T03:47:56.319Z,0
2017-08-18T03:48:36.816Z,0
2017-08-18T03:49:17.322Z,0
2017-08-18T03:49:58.389Z,0
2017-08-18T03:50:38.889Z,0
2017-08-18T03:51:19.381Z,0
2017-08-18T03:51:59.863Z,0
2017-08-18T03:52:40.338Z,4
2017-08-18T03:53:20.785Z,4
2017-08-18T03:55:18.404Z,4
2017-08-18T03:55:58.901Z,4
2017-08-18T03:56:39.392Z,4
2017-08-18T03:57:19.862Z,4
2017-08-18T03:58:00.344Z,8
2017-08-18T03:58:40.844Z,8
2017-08-18T03:59:21.334Z,4
2017-08-18T04:00:01.813Z,8
2017-08-18T04:00:42.317Z,8
2017-08-18T04:01:22.804Z,8
2017-08-18T04:02:03.289Z,8
2017-08-18T04:02:43.796Z,12
2017-08-18T04:03:24.340Z,12
2017-08-18T04:04:04.755Z,12
2017-08-18T04:04:45.242Z,16
2017-08-18T04:05:25.754Z,16
2017-08-18T04:06:06.244Z,20
2017-08-18T04:06:46.735Z,24
2017-08-18T04:07:27.230Z,24
2017-08-18T04:08:07.733Z,28
2017-08-18T04:08:48.212Z,32
2017-08-18T04:09:28.702Z,36
2017-08-18T04:10:09.181Z,36
2017-08-18T04:10:49.701Z,40
2017-08-18T04:11:30.194Z,44
2017-08-18T04:12:10.676Z,48
2017-08-18T04:12:51.180Z,52
2017-08-18T04:13:31.668Z,56
2017-08-18T04:14:12.151Z,64
2017-08-18T04:14:52.673Z,68
2017-08-18T04:15:33.143Z,76
2017-08-18T04:16:13.624Z,84
2017-08-18T04:16:54.121Z,88
2017-08-18T04:17:34.610Z,96
2017-08-18T04:18:15.070Z,104
2017-08-18T04:18:55.550Z,116
2017-08-18T04:19:36.050Z,124
2017-08-18T04:20:16.544Z,140
2017-08-18T04:20:57.042Z,156
2017-08-18T04:21:37.535Z,172
2017-08-18T04:22:17.954Z,188
2017-08-18T04:22:58.417Z,204
2017-08-18T04:25:26.368Z,260
2017-08-18T04:26:06.870Z,276
2017-08-18T04:26:47.358Z,296
2017-08-18T04:27:28.436Z,308
2017-08-18T04:28:09.762Z,320
2017-08-18T04:28:50.255Z,332
2017-08-18T04:29:30.752Z,344
2017-08-18T04:30:11.236Z,364
2017-08-18T04:30:51.726Z,384
2017-08-18T04:31:32.214Z,400
2017-08-18T04:32:12.710Z,420
2017-08-18T04:32:53.201Z,436
2017-08-18T04:33:33.694Z,456
2017-08-18T04:34:14.947Z,476
2017-08-18T04:34:55.462Z,504
2017-08-18T04:35:35.928Z,528
2017-08-18T04:36:16.423Z,552
2017-08-18T04:36:56.909Z,572
2017-08-18T04:37:37.398Z,588
2017-08-18T04:38:17.892Z,604
2017-08-18T04:38:58.382Z,616
2017-08-18T04:39:38.879Z,624
2017-08-18T04:40:19.370Z,640
2017-08-18T04:40:59.856Z,648
2017-08-18T04:41:40.364Z,660
2017-08-18T04:42:20.852Z,676
2017-08-18T04:43:01.371Z,692
2017-08-18T04:43:41.872Z,716
2017-08-18T04:44:22.361Z,740
2017-08-18T04:45:02.850Z,772
2017-08-18T04:45:43.343Z,800
2017-08-18T04:46:23.846Z,820
2017-08-18T04:47:04.332Z,848
2017-08-18T04:47:44.796Z,868
2017-08-18T04:48:26.181Z,892
2017-08-18T04:49:06.663Z,908
2017-08-18T04:49:47.142Z,920
2017-08-18T04:50:27.578Z,928
2017-08-18T04:51:08.037Z,932
2017-08-18T04:53:05.704Z,944
2017-08-18T04:53:46.662Z,948
2017-08-18T04:54:27.149Z,968
2017-08-18T04:55:07.627Z,992
2017-08-18T04:57:35.571Z,1132
2017-08-18T04:58:16.061Z,1164
2017-08-18T05:00:49.044Z,1244
2017-08-18T05:01:29.571Z,1256
2017-08-18T05:02:09.976Z,1256
2017-08-18T05:02:50.469Z,1252
2017-08-18T05:03:30.941Z,1240
2017-08-18T05:04:11.445Z,1228
2017-08-18T05:04:51.930Z,1208
2017-08-18T05:05:32.415Z,1212
2017-08-18T05:06:12.893Z,1232
2017-08-18T05:06:53.394Z,1280
2017-08-18T05:07:33.864Z,1336
2017-08-18T05:08:14.358Z,1388
2017-08-18T05:08:54.822Z,1460
2017-08-18T05:09:35.318Z,1528
2017-08-18T05:10:15.795Z,1596
2017-08-18T05:10:56.282Z,1652
2017-08-18T05:13:08.979Z,1776
2017-08-18T05:13:49.472Z,1832
2017-08-18T05:14:29.936Z,1884
2017-08-18T05:15:10.426Z,1936
2017-08-18T05:15:50.934Z,1952
2017-08-18T05:16:31.404Z,1912
2017-08-18T05:17:11.896Z,1856
2017-08-18T05:17:52.401Z,1840
2017-08-18T05:18:32.882Z,1788
2017-08-18T05:19:13.369Z,1704
2017-08-18T05:19:53.879Z,1620
2017-08-18T05:20:34.346Z,1552
2017-08-18T05:21:14.834Z,1544
2017-08-18T05:21:55.293Z,1544
2017-08-18T05:22:35.758Z,1512
2017-08-18T05:23:16.197Z,1484
2017-08-18T05:23:56.667Z,1456
2017-08-18T05:26:29.672Z,1392
2017-08-18T05:27:10.139Z,1396
2017-08-18T05:27:50.623Z,1388
2017-08-18T05:28:31.095Z,1384
2017-08-18T05:29:11.592Z,1388
2017-08-18T05:29:52.883Z,1400
2017-08-18T05:30:33.380Z,1436
2017-08-18T05:31:13.877Z,1488
2017-08-18T05:31:54.356Z,1588
2017-08-18T05:32:34.814Z,1752
2017-08-18T05:33:15.259Z,2008
2017-08-18T05:33:55.732Z,2316
2017-08-18T05:35:53.419Z,3260
2017-08-18T05:36:33.902Z,3576
2017-08-18T05:37:14.356Z,3860
2017-08-18T05:37:54.814Z,4060
2017-08-18T05:38:35.266Z,4240
2017-08-18T05:39:15.727Z,4388
2017-08-18T05:41:43.716Z,4656
2017-08-18T05:42:24.197Z,4612
2017-08-18T05:43:04.715Z,4492
2017-08-18T05:43:45.189Z,4300
2017-08-18T05:44:25.692Z,4064
2017-08-18T05:45:06.189Z,3848
2017-08-18T05:45:46.679Z,3688
2017-08-18T05:46:27.121Z,3620
2017-08-18T05:47:07.595Z,3596
2017-08-18T05:47:48.060Z,3404
2017-08-18T05:48:28.530Z,3376
2017-08-18T05:49:08.996Z,3400
2017-08-18T05:49:49.456Z,3396
2017-08-18T05:50:29.904Z,3404
2017-08-18T05:51:10.371Z,3440
2017-08-18T05:51:50.879Z,3460
2017-08-18T05:53:48.526Z,3416
2017-08-18T05:54:29.026Z,3416
2017-08-18T05:55:09.492Z,3484
2017-08-18T05:55:49.962Z,3444
2017-08-18T05:56:30.412Z,3516
2017-08-18T05:57:10.892Z,3672
2017-08-18T05:57:51.333Z,3808
2017-08-18T05:59:48.993Z,4348
2017-08-18T06:00:29.465Z,4480
2017-08-18T06:01:09.983Z,4512
2017-08-18T06:01:50.487Z,4508
2017-08-18T06:03:48.126Z,4548
2017-08-18T06:04:28.620Z,4636
2017-08-18T06:05:09.103Z,4680
2017-08-18T06:05:49.582Z,4672
2017-08-18T06:06:30.055Z,4716
2017-08-18T06:09:03.113Z,4996
2017-08-18T06:09:43.599Z,4768
2017-08-18T06:10:24.092Z,4520
2017-08-18T06:11:04.583Z,4144
2017-08-18T06:11:45.777Z,3852
2017-08-18T06:12:26.977Z,3852
2017-08-18T06:13:07.446Z,3780
2017-08-18T06:13:47.949Z,3760
2017-08-18T06:14:28.441Z,3804
2017-08-18T06:15:08.923Z,3888
2017-08-18T06:15:49.395Z,3976
2017-08-18T06:16:29.969Z,4332
2017-08-18T06:17:10.419Z,4356
2017-08-18T06:19:43.477Z,3860
2017-08-18T06:20:23.950Z,3820
2017-08-18T06:21:04.427Z,3808
2017-08-18T06:21:44.925Z,3896
2017-08-18T06:22:25.389Z,3692
2017-08-18T06:23:05.863Z,3636
2017-08-18T06:23:46.452Z,3536
2017-08-18T06:24:26.894Z,3508
2017-08-18T06:25:07.373Z,3484
2017-08-18T06:25:47.798Z,3476
2017-08-18T06:26:28.259Z,3492
2017-08-18T06:29:01.248Z,3664
2017-08-18T06:29:41.758Z,3664
2017-08-18T06:30:22.229Z,3656
2017-08-18T06:31:03.314Z,3624
2017-08-18T06:31:43.834Z,3572
2017-08-18T06:32:24.334Z,3492
2017-08-18T06:33:04.772Z,3432
2017-08-18T06:33:45.963Z,3428
2017-08-18T06:36:13.943Z,3984
2017-08-18T06:36:54.543Z,4196
2017-08-18T06:37:34.899Z,4456
2017-08-18T06:38:15.413Z,4696
2017-08-18T06:38:55.880Z,4944
2017-08-18T06:39:36.253Z,5084
2017-08-18T06:40:16.679Z,5160
2017-08-18T06:40:57.863Z,5168
2017-08-18T06:41:38.279Z,5096
2017-08-18T06:42:18.834Z,5028
2017-08-18T06:42:59.747Z,4872
2017-08-18T06:43:40.165Z,4752
2017-08-18T06:44:20.574Z,4548
2017-08-18T06:45:01.083Z,4448
2017-08-18T06:45:41.504Z,4248
2017-08-18T06:46:21.961Z,4032
2017-08-18T06:47:03.362Z,3916
2017-08-18T06:47:43.758Z,3812
2017-08-18T06:48:24.252Z,3660
2017-08-18T06:49:04.724Z,3500
2017-08-18T06:49:45.151Z,3384
2017-08-18T06:50:25.717Z,3312
2017-08-18T06:51:06.216Z,3268
2017-08-18T06:51:46.688Z,3308
2017-08-18T06:52:27.203Z,3376
2017-08-18T06:53:07.642Z,3472
2017-08-18T06:53:48.084Z,3512
2017-08-18T06:54:28.572Z,3612
2017-08-18T06:55:09.058Z,3732
2017-08-18T06:55:49.607Z,3884
2017-08-18T06:56:30.816Z,3968
2017-08-18T06:57:11.508Z,4056
2017-08-18T06:57:51.931Z,4100
2017-08-18T06:58:32.540Z,4148
2017-08-18T06:59:13.059Z,4168
2017-08-18T06:59:53.790Z,4228
2017-08-18T07:00:34.408Z,4384
2017-08-18T07:01:15.096Z,4596
2017-08-18T07:01:55.647Z,4872
2017-08-18T07:02:36.392Z,5160
2017-08-18T07:03:17.083Z,5480
2017-08-18T07:03:57.686Z,5720
2017-08-18T07:04:38.333Z,5840
2017-08-18T07:05:18.926Z,5900
2017-08-18T07:07:36.885Z,5844
2017-08-18T07:08:17.401Z,5884
2017-08-18T07:08:57.931Z,6052
2017-08-18T07:09:38.454Z,6316
2017-08-18T07:10:19.092Z,6704
2017-08-18T07:10:59.677Z,7000
2017-08-18T07:11:40.252Z,7192
2017-08-18T07:12:20.875Z,7288
2017-08-18T07:13:01.453Z,7312
2017-08-18T07:13:42.028Z,7196
2017-08-18T07:14:22.677Z,7140
2017-08-18T07:15:03.252Z,7152
2017-08-18T07:15:43.813Z,7356
2017-08-18T07:16:24.389Z,7704
2017-08-18T07:17:04.949Z,8092
2017-08-18T07:17:45.611Z,8540
2017-08-18T07:18:26.194Z,9232
2017-08-18T07:19:06.792Z,10068
2017-08-18T07:19:47.396Z,10468
2017-08-18T07:20:27.993Z,11212
2017-08-18T07:21:08.576Z,13068
2017-08-18T07:21:49.188Z,12640
2017-08-18T07:22:29.843Z,12564
2017-08-18T07:23:10.467Z,13132
2017-08-18T07:23:51.075Z,13388
2017-08-18T07:24:31.686Z,13272
2017-08-18T07:25:12.854Z,14612
2017-08-18T07:25:53.453Z,12536
2017-08-18T07:26:34.063Z,12140
2017-08-18T07:27:15.357Z,11752
2017-08-18T07:27:55.959Z,12200
2017-08-18T07:28:36.582Z,13744
2017-08-18T07:29:17.156Z,15572
2017-08-18T07:29:57.739Z,13792
2017-08-18T07:30:38.301Z,13196
2017-08-18T07:31:18.869Z,15084
2017-08-18T07:31:59.438Z,11444
2017-08-18T07:32:40.024Z,11676
2017-08-18T07:33:20.641Z,10896
2017-08-18T07:34:01.295Z,10332
2017-08-18T07:34:41.935Z,10064
2017-08-18T07:35:22.617Z,9804
2017-08-18T07:36:03.251Z,11252
2017-08-18T07:36:43.881Z,10104
2017-08-18T07:37:24.463Z,10572
2017-08-18T07:38:05.058Z,11072
2017-08-18T07:38:45.633Z,11556
2017-08-18T07:39:27.062Z,13212
2017-08-18T07:40:07.536Z,14952
2017-08-18T07:40:48.037Z,21408
2017-08-18T07:41:28.613Z,16048
2017-08-18T07:44:01.961Z,24480
2017-08-18T07:44:42.565Z,25504
2017-08-18T07:45:23.278Z,25856
2017-08-18T07:46:03.941Z,26016
2017-08-18T07:46:44.602Z,22976
2017-08-18T07:47:25.302Z,19968
2017-08-18T07:48:06.088Z,19168
2017-08-18T07:48:46.637Z,21760
2017-08-18T07:49:27.216Z,18048
2017-08-18T07:50:07.817Z,21216
2017-08-18T07:50:48.519Z,23840
2017-08-18T07:51:29.218Z,17004
2017-08-18T07:52:09.848Z,17984
2017-08-18T07:52:50.560Z,16392
2017-08-18T07:53:31.166Z,23616
2017-08-18T07:54:11.835Z,20032
2017-08-18T07:54:52.559Z,21504
2017-08-18T07:57:05.811Z,16788
2017-08-18T07:57:46.396Z,16548
2017-08-18T07:58:27.014Z,17140
2017-08-18T07:59:07.661Z,19008
2017-08-18T07:59:48.353Z,20320
2017-08-18T08:00:29.177Z,20384
2017-08-18T08:01:09.865Z,20608
2017-08-18T08:01:51.013Z,25888
2017-08-18T08:02:31.797Z,26912
2017-08-18T08:03:12.375Z,19520
2017-08-18T08:03:53.062Z,16972
2017-08-18T08:04:33.687Z,16564
2017-08-18T08:05:14.265Z,17472
2017-08-18T08:05:55.153Z,16916
2017-08-18T08:06:35.789Z,17472
2017-08-18T08:08:48.652Z,24448
2017-08-18T08:09:29.187Z,21792
2017-08-18T08:10:09.739Z,21312
2017-08-18T08:10:50.222Z,21344
2017-08-18T08:11:30.699Z,22368
2017-08-18T08:12:11.205Z,25760
2017-08-18T08:12:51.662Z,21728
2017-08-18T08:13:32.173Z,24288
2017-08-18T08:14:12.693Z,23072
2017-08-18T08:14:53.241Z,20448
2017-08-18T08:15:33.718Z,18080
2017-08-18T08:16:14.241Z,16672
2017-08-18T08:16:55.463Z,16996
2017-08-18T08:17:35.942Z,18272
2017-08-18T08:18:16.469Z,19552
2017-08-18T08:18:57.041Z,21024
2017-08-18T08:19:37.585Z,23328
2017-08-18T08:20:18.817Z,25216
2017-08-18T08:20:59.327Z,26368
2017-08-18T08:21:39.810Z,24416
2017-08-18T08:22:20.322Z,24448
2017-08-18T08:23:00.828Z,22400
2017-08-18T08:23:41.309Z,21408
2017-08-18T08:25:54.106Z,18976
2017-08-18T08:26:34.569Z,18816
2017-08-18T08:27:15.028Z,18304
2017-08-18T08:27:55.593Z,17568
2017-08-18T08:28:36.065Z,16776
2017-08-18T08:30:33.714Z,15584
2017-08-18T08:31:14.192Z,15356
2017-08-18T08:31:54.685Z,15524
2017-08-18T08:32:35.193Z,15984
2017-08-18T08:33:17.685Z,16896
2017-08-18T08:33:58.688Z,18464
2017-08-18T08:34:39.171Z,19648
2017-08-18T08:35:19.648Z,20928
2017-08-18T08:36:00.148Z,21152
2017-08-18T08:36:40.641Z,20896
2017-08-18T08:37:21.111Z,20384
2017-08-18T08:38:02.090Z,20128
2017-08-18T08:38:42.598Z,20384
2017-08-18T08:39:23.103Z,20352
2017-08-18T08:40:03.616Z,19776
2017-08-18T08:40:44.110Z,19456
2017-08-18T08:41:24.677Z,19136
2017-08-18T08:42:05.763Z,19712
2017-08-18T08:42:46.310Z,19744
2017-08-18T08:43:26.793Z,27744
2017-08-18T08:44:07.300Z,27904
2017-08-18T08:44:47.785Z,27520
2017-08-18T08:45:28.263Z,26464
2017-08-18T08:46:08.762Z,25120
2017-08-18T08:46:49.224Z,24128
2017-08-18T08:47:29.772Z,23520
2017-08-18T08:48:11.153Z,22784
2017-08-18T08:48:52.725Z,22080
2017-08-18T08:51:20.765Z,19584
2017-08-18T08:52:01.235Z,19296
2017-08-18T08:52:41.691Z,18912
2017-08-18T08:53:22.176Z,18720
2017-08-18T08:54:02.700Z,18656
2017-08-18T08:56:00.418Z,19328
2017-08-18T08:56:41.875Z,19968
2017-08-18T08:57:22.378Z,20672
2017-08-18T08:58:02.977Z,21888
2017-08-18T08:58:43.443Z,23456
2017-08-18T08:59:24.026Z,25184
2017-08-18T09:00:04.579Z,26176
2017-08-18T09:00:45.147Z,26912
2017-08-18T09:01:25.727Z,27552
2017-08-18T09:02:06.861Z,28096
2017-08-18T09:02:48.258Z,28416
2017-08-18T09:03:29.862Z,28640
2017-08-18T09:04:10.447Z,28608
2017-08-18T09:04:51.689Z,28704
2017-08-18T09:05:32.267Z,27360
2017-08-18T09:06:12.885Z,25600
2017-08-18T09:06:54.104Z,28576
2017-08-18T09:07:34.706Z,28768
2017-08-18T09:08:15.282Z,25408
2017-08-18T09:08:55.883Z,24096
2017-08-18T09:09:36.483Z,23712
2017-08-18T09:10:17.044Z,23072
2017-08-18T09:10:57.633Z,21440
2017-08-18T09:11:38.240Z,18816
2017-08-18T09:12:18.859Z,21696
2017-08-18T09:12:59.436Z,23392
2017-08-18T09:13:40.034Z,24960
2017-08-18T09:14:20.672Z,24288
2017-08-18T09:15:01.227Z,24832
2017-08-18T09:15:42.633Z,14360
2017-08-18T09:16:23.119Z,25024
2017-08-18T09:17:03.595Z,26272
2017-08-18T09:17:44.070Z,20288
2017-08-18T09:18:25.844Z,21056
2017-08-18T09:19:06.405Z,22400
2017-08-18T09:19:46.882Z,28512
2017-08-18T09:22:20.040Z,23328
2017-08-18T09:23:00.535Z,22528
2017-08-18T09:23:41.013Z,23136
2017-08-18T09:24:21.473Z,22880
2017-08-18T09:25:01.940Z,21984
2017-08-18T09:25:42.502Z,22656
2017-08-18T09:26:23.145Z,22432
2017-08-18T09:28:56.293Z,21792
2017-08-18T09:29:37.024Z,21664
2017-08-18T09:31:50.076Z,21632
2017-08-18T09:32:30.653Z,21664
2017-08-18T09:33:12.298Z,21600
2017-08-18T09:33:52.903Z,21280
2017-08-18T09:34:33.468Z,20992
2017-08-18T09:35:13.929Z,20832
2017-08-18T09:35:54.435Z,20672
2017-08-18T09:36:34.897Z,20640
2017-08-18T09:37:15.362Z,20544
2017-08-18T09:37:55.909Z,20544
2017-08-18T09:38:36.407Z,20544
2017-08-18T09:39:16.885Z,20576
2017-08-18T09:39:57.348Z,20832
2017-08-18T09:40:37.849Z,21152
2017-08-18T09:41:18.430Z,21216
2017-08-18T09:41:58.914Z,19328
2017-08-18T09:42:39.445Z,21728
2017-08-18T09:43:19.927Z,22816
2017-08-18T09:44:00.393Z,20928
2017-08-18T09:44:40.905Z,19328
2017-08-18T09:45:21.425Z,21248
2017-08-18T09:46:01.981Z,19008
2017-08-18T09:46:42.424Z,19584
2017-08-18T09:47:23.062Z,19456
2017-08-18T09:48:03.548Z,14896
2017-08-18T09:48:44.102Z,17320
2017-08-18T09:49:24.640Z,19328
2017-08-18T09:50:05.087Z,20384
2017-08-18T09:50:45.622Z,19936
2017-08-18T09:51:26.167Z,19776
2017-08-18T09:52:08.634Z,19584
2017-08-18T09:52:49.181Z,18880
2017-08-18T09:53:29.843Z,18104
2017-08-18T09:55:48.169Z,16248
2017-08-18T09:56:28.670Z,15732
2017-08-18T09:57:09.134Z,15260
2017-08-18T09:57:49.694Z,14880
2017-08-18T09:58:30.149Z,14620
2017-08-18T09:59:10.610Z,14456
2017-08-18T09:59:51.091Z,14296
2017-08-18T10:00:31.538Z,14268
2017-08-18T10:01:11.969Z,14244
2017-08-18T10:01:52.464Z,14296
2017-08-18T10:04:10.540Z,13964
2017-08-18T10:04:50.804Z,13720
2017-08-18T10:05:31.309Z,13652
2017-08-18T10:06:11.832Z,13580
2017-08-18T10:06:52.353Z,13580
2017-08-18T10:07:32.856Z,13828
2017-08-18T10:09:50.720Z,13540
2017-08-18T10:10:31.208Z,15984
2017-08-18T10:11:11.702Z,16264
2017-08-18T10:11:52.201Z,15996
2017-08-18T10:12:32.838Z,15764
2017-08-18T10:13:13.246Z,15908
2017-08-18T10:13:53.676Z,16040
2017-08-18T10:14:34.282Z,16196
2017-08-18T10:15:14.737Z,16688
2017-08-18T10:15:55.210Z,17136
2017-08-18T10:16:35.674Z,17496
2017-08-18T10:17:16.246Z,17732
2017-08-18T10:17:56.741Z,17868
2017-08-18T10:18:37.178Z,18004
2017-08-18T10:19:17.718Z,17928
2017-08-18T10:19:58.372Z,17844
2017-08-18T10:20:38.863Z,17920
2017-08-18T10:21:19.401Z,17980
2017-08-18T10:21:59.848Z,18040
2017-08-18T10:22:40.458Z,18204
2017-08-18T10:23:21.226Z,18528
2017-08-18T10:24:02.118Z,18236
2017-08-18T10:24:43.248Z,18108
2017-08-18T10:25:24.078Z,18004
2017-08-18T10:26:05.081Z,18020
2017-08-18T10:26:46.055Z,18024
2017-08-18T10:27:26.911Z,18048
2017-08-18T10:28:07.882Z,17960
2017-08-18T10:28:49.252Z,17724
2017-08-18T10:29:30.411Z,17500
2017-08-18T10:30:11.631Z,17164
2017-08-18T10:30:52.555Z,16812
2017-08-18T10:31:33.299Z,16248
2017-08-18T10:32:13.759Z,15556
2017-08-18T10:32:54.416Z,14664
2017-08-18T10:33:34.939Z,13812
2017-08-18T10:34:15.359Z,12624
2017-08-18T10:34:55.838Z,11672